createdAt,value
2018-12-13T00:01:22.130Z,7.10
2018-12-13T00:03:51.920Z,6.80
2018-12-13T00:06:20.632Z,6.37
2018-12-13T00:08:49.630Z,6.03
2018-12-13T00:11:18.684Z,6.83
2018-12-13T00:13:47.725Z,8.70
2018-12-13T00:16:16.406Z,6.23
2018-12-13T00:18:46.665Z,5.43
2018-12-13T00:21:15.597Z,5.37
2018-12-13T00:23:44.318Z,4.67
2018-12-13T00:26:13.332Z,4.67
2018-12-13T00:28:42.169Z,4.30
2018-12-13T00:31:11.170Z,4.50
2018-12-13T00:33:39.954Z,4.27
2018-12-13T00:36:08.672Z,5.03
2018-12-13T00:38:37.530Z,4.50
2018-12-13T00:41:06.247Z,5.03
2018-12-13T00:43:35.335Z,4.93
2018-12-13T00:46:04.102Z,4.70
2018-12-13T00:48:33.079Z,5.63
2018-12-13T00:51:01.895Z,5.40
2018-12-13T00:53:30.582Z,6.70
2018-12-13T00:55:59.565Z,6.37
2018-12-13T00:58:28.651Z,6.53
2018-12-13T01:01:01.438Z,6.53
2018-12-13T01:03:30.763Z,10.10
2018-12-13T01:06:00.226Z,8.70
2018-12-13T01:08:29.120Z,8.10
2018-12-13T01:10:58.377Z,8.30
2018-12-13T01:13:27.206Z,8.97
2018-12-13T01:15:56.314Z,9.53
2018-12-13T01:18:25.602Z,11.30
2018-12-13T01:20:54.396Z,10.90
2018-12-13T01:23:23.620Z,11.53
2018-12-13T01:25:52.747Z,12.37
2018-12-13T01:28:21.755Z,8.77
2018-12-13T01:30:50.950Z,13.07
2018-12-13T01:33:19.836Z,13.33
2018-12-13T01:35:48.800Z,11.97
2018-12-13T01:38:17.496Z,9.67
2018-12-13T01:40:46.384Z,7.70
2018-12-13T01:43:15.722Z,7.20
2018-12-13T01:45:44.726Z,6.57
2018-12-13T01:48:13.817Z,6.83
2018-12-13T01:50:42.619Z,6.43
2018-12-13T01:53:11.621Z,5.60
2018-12-13T01:55:41.296Z,8.27
2018-12-13T01:58:09.995Z,7.40
2018-12-13T02:00:38.657Z,7.83
2018-12-13T02:03:07.446Z,7.83
2018-12-13T02:05:36.448Z,6.93
2018-12-13T02:08:05.175Z,6.90
2018-12-13T02:10:33.892Z,6.87
2018-12-13T02:13:02.608Z,6.20
2018-12-13T02:18:12.964Z,5.17
2018-12-13T02:20:42.129Z,4.43
2018-12-13T02:23:10.816Z,5.90
2018-12-13T02:25:39.619Z,6.23
2018-12-13T02:28:08.709Z,7.27
2018-12-13T02:30:37.701Z,7.60
2018-12-13T02:33:06.755Z,6.30
2018-12-13T02:35:35.791Z,6.23
2018-12-13T02:38:04.772Z,7.03
2018-12-13T02:40:33.728Z,9.23
2018-12-13T02:43:02.453Z,6.93
2018-12-13T02:45:31.406Z,5.93
2018-12-13T02:48:00.073Z,6.13
2018-12-13T02:50:28.941Z,6.73
2018-12-13T02:52:57.797Z,7.20
2018-12-13T02:55:26.580Z,8.13
2018-12-13T02:57:55.317Z,6.20
2018-12-13T03:00:24.181Z,6.47
2018-12-13T03:02:53.260Z,9.00
2018-12-13T03:05:22.348Z,6.47
2018-12-13T03:07:51.521Z,5.37
2018-12-13T03:10:20.508Z,6.33
2018-12-13T03:12:49.404Z,7.73
2018-12-13T03:15:18.456Z,6.77
2018-12-13T03:17:47.283Z,6.07
2018-12-13T03:20:16.315Z,6.63
2018-12-13T03:22:45.023Z,5.90
2018-12-13T03:25:14.555Z,6.50
2018-12-13T03:27:43.661Z,5.77
2018-12-13T03:30:12.813Z,5.83
2018-12-13T03:32:41.686Z,5.70
2018-12-13T03:35:10.414Z,5.77
2018-12-13T03:37:39.595Z,6.17
2018-12-13T03:40:08.710Z,6.93
2018-12-13T03:42:37.443Z,7.90
2018-12-13T03:45:06.597Z,7.47
2018-12-13T03:47:35.478Z,8.73
2018-12-13T03:50:04.916Z,8.90
2018-12-13T03:52:33.875Z,8.27
2018-12-13T03:55:02.838Z,7.70
2018-12-13T03:57:31.579Z,7.63
2018-12-13T04:00:00.346Z,7.63
2018-12-13T04:02:30.184Z,8.37
2018-12-13T04:04:59.221Z,9.23
2018-12-13T04:07:28.031Z,10.30
2018-12-13T04:09:56.884Z,9.87
2018-12-13T04:12:25.675Z,11.97
2018-12-13T04:14:54.454Z,11.73
2018-12-13T04:17:23.162Z,11.80
2018-12-13T04:19:52.396Z,12.00
2018-12-13T04:22:21.441Z,13.33
2018-12-13T04:24:50.293Z,13.27
2018-12-13T04:27:19.157Z,13.40
2018-12-13T04:29:48.185Z,13.23
2018-12-13T04:32:17.350Z,12.30
2018-12-13T04:34:46.384Z,13.30
2018-12-13T04:37:15.077Z,13.07
2018-12-13T04:39:44.235Z,15.30
2018-12-13T04:42:13.064Z,12.37
2018-12-13T04:44:41.974Z,13.53
2018-12-13T04:47:10.947Z,14.27
2018-12-13T04:49:39.712Z,14.27
2018-12-13T04:52:08.763Z,17.43
2018-12-13T04:54:37.955Z,16.40
2018-12-13T04:57:07.000Z,15.70
2018-12-13T04:59:36.000Z,16.43
2018-12-13T05:02:05.568Z,15.23
2018-12-13T05:04:34.540Z,17.33
2018-12-13T05:07:04.090Z,21.53
2018-12-13T05:09:33.164Z,19.10
2018-12-13T05:12:02.159Z,15.63
2018-12-13T05:14:30.803Z,14.03
2018-12-13T05:16:59.759Z,14.70
2018-12-13T05:19:28.720Z,13.67
2018-12-13T05:21:58.443Z,13.40
2018-12-13T05:24:27.331Z,14.00
2018-12-13T05:26:55.992Z,13.80
2018-12-13T05:29:24.791Z,13.43
2018-12-13T05:31:53.821Z,19.03
2018-12-13T05:34:22.847Z,15.33
2018-12-13T05:36:51.573Z,14.87
2018-12-13T05:39:20.805Z,17.43
2018-12-13T05:41:49.777Z,17.83
2018-12-13T05:44:22.529Z,20.77
2018-12-13T05:46:51.634Z,19.53
2018-12-13T05:49:20.605Z,16.07
2018-12-13T05:51:49.360Z,17.17
2018-12-13T05:54:18.119Z,28.57
2018-12-13T05:56:46.902Z,21.43
2018-12-13T05:59:16.340Z,19.00
2018-12-13T06:01:45.089Z,21.37
2018-12-13T06:04:14.118Z,18.37
2018-12-13T06:06:43.292Z,19.30
2018-12-13T06:09:12.046Z,17.17
2018-12-13T06:11:41.129Z,18.07
2018-12-13T06:14:09.867Z,16.20
2018-12-13T06:16:38.971Z,15.13
2018-12-13T06:19:07.860Z,15.53
2018-12-13T06:21:37.199Z,15.43
2018-12-13T06:24:06.530Z,15.30
2018-12-13T06:26:35.449Z,14.07
2018-12-13T06:29:04.258Z,14.80
2018-12-13T06:31:33.029Z,13.53
2018-12-13T06:34:01.786Z,13.40
2018-12-13T06:36:30.551Z,11.13
2018-12-13T06:38:59.464Z,9.30
2018-12-13T06:41:28.133Z,11.60
2018-12-13T06:43:56.869Z,11.93
2018-12-13T06:46:25.633Z,12.33
2018-12-13T06:48:55.053Z,10.53
2018-12-13T06:51:24.007Z,10.20
2018-12-13T06:53:52.876Z,10.40
2018-12-13T06:56:22.014Z,11.07
2018-12-13T06:58:50.968Z,11.33
2018-12-13T07:01:19.808Z,10.90
2018-12-13T07:03:48.496Z,10.80
2018-12-13T07:06:17.424Z,11.30
2018-12-13T07:08:46.593Z,10.40
2018-12-13T07:11:15.656Z,11.17
2018-12-13T07:13:44.504Z,10.77
2018-12-13T07:16:13.595Z,11.60
2018-12-13T07:18:42.378Z,10.13
2018-12-13T07:21:11.177Z,11.17
2018-12-13T07:23:40.073Z,12.37
2018-12-13T07:26:08.750Z,13.23
2018-12-13T07:28:37.633Z,21.27
2018-12-13T07:31:06.745Z,11.13
2018-12-13T07:33:35.517Z,12.70
2018-12-13T07:36:04.365Z,12.97
2018-12-13T07:38:33.325Z,16.37
2018-12-13T07:41:02.129Z,15.07
2018-12-13T07:43:31.105Z,12.03
2018-12-13T07:45:59.838Z,12.60
2018-12-13T07:48:28.866Z,11.07
2018-12-13T07:50:57.817Z,9.93
2018-12-13T07:53:26.519Z,11.20
2018-12-13T07:55:55.253Z,12.57
2018-12-13T07:58:24.328Z,18.67
2018-12-13T08:00:53.245Z,23.90
2018-12-13T08:03:22.198Z,20.07
2018-12-13T08:05:51.286Z,19.53
2018-12-13T08:08:21.143Z,19.30
2018-12-13T08:10:50.207Z,22.20
2018-12-13T08:13:19.364Z,24.20
2018-12-13T08:15:48.514Z,19.70
2018-12-13T08:18:17.420Z,21.77
2018-12-13T08:20:46.207Z,19.13
2018-12-13T08:23:15.261Z,17.47
2018-12-13T08:25:44.121Z,19.20
2018-12-13T08:28:13.243Z,17.37
2018-12-13T08:30:42.047Z,15.43
2018-12-13T08:33:10.974Z,14.47
2018-12-13T08:35:39.907Z,14.43
2018-12-13T08:38:09.633Z,10.97
2018-12-13T08:40:38.436Z,12.03
2018-12-13T08:43:07.279Z,11.47
2018-12-13T08:45:36.373Z,9.53
2018-12-13T08:48:05.324Z,8.57
2018-12-13T08:50:34.085Z,8.33
2018-12-13T08:53:02.987Z,7.53
2018-12-13T08:55:31.657Z,9.17
2018-12-13T08:58:00.909Z,7.60
2018-12-13T09:00:29.621Z,8.70
2018-12-13T09:02:58.638Z,7.93
2018-12-13T09:05:27.543Z,10.53
2018-12-13T09:07:56.515Z,11.57
2018-12-13T09:10:25.714Z,12.00
2018-12-13T09:12:54.909Z,12.73
2018-12-13T09:15:24.361Z,12.77
2018-12-13T09:17:53.700Z,16.30
2018-12-13T09:20:22.675Z,15.10
2018-12-13T09:22:51.647Z,17.13
2018-12-13T09:25:20.714Z,15.73
2018-12-13T09:27:49.832Z,18.30
2018-12-13T09:30:18.705Z,19.07
2018-12-13T09:32:47.432Z,17.70
2018-12-13T09:35:16.311Z,17.17
2018-12-13T09:37:47.708Z,15.17
2018-12-13T09:40:16.359Z,15.23
2018-12-13T09:42:45.124Z,16.77
2018-12-13T09:45:14.129Z,15.20
2018-12-13T09:47:43.116Z,14.60
2018-12-13T09:50:12.040Z,15.80
2018-12-13T09:52:41.038Z,14.83
2018-12-13T09:55:10.104Z,12.33
2018-12-13T09:57:39.143Z,12.43
2018-12-13T10:00:09.796Z,12.00
2018-12-13T10:02:38.668Z,11.30
2018-12-13T10:05:07.429Z,11.43
2018-12-13T10:07:36.128Z,10.70
2018-12-13T10:10:05.755Z,9.37
2018-12-13T10:12:34.883Z,11.57
2018-12-13T10:15:03.992Z,12.00
2018-12-13T10:17:33.032Z,10.73
2018-12-13T10:20:02.393Z,11.13
2018-12-13T10:22:31.209Z,10.23
2018-12-13T10:25:00.566Z,10.40
2018-12-13T10:27:29.566Z,11.33
2018-12-13T10:29:58.634Z,12.57
2018-12-13T10:32:27.357Z,12.37
2018-12-13T10:34:56.289Z,12.27
2018-12-13T10:37:25.083Z,11.93
2018-12-13T10:39:53.864Z,10.03
2018-12-13T10:42:22.771Z,9.13
2018-12-13T10:44:51.562Z,9.87
2018-12-13T10:47:20.707Z,9.50
2018-12-13T10:49:49.682Z,8.07
2018-12-13T10:52:18.499Z,8.77
2018-12-13T10:54:49.031Z,8.10
2018-12-13T10:57:18.070Z,8.57
2018-12-13T10:59:46.748Z,7.00
2018-12-13T11:02:20.861Z,8.03
2018-12-13T11:04:49.667Z,7.60
2018-12-13T11:07:18.538Z,7.60
2018-12-13T11:09:47.612Z,7.80
2018-12-13T11:12:16.402Z,9.03
2018-12-13T11:14:45.482Z,8.47
2018-12-13T11:17:14.620Z,8.93
2018-12-13T11:19:43.574Z,9.77
2018-12-13T11:22:12.721Z,9.57
2018-12-13T11:24:41.484Z,9.67
2018-12-13T11:28:21.550Z,9.00
2018-12-13T11:30:50.680Z,9.93
2018-12-13T11:33:19.535Z,10.13
2018-12-13T11:35:48.707Z,9.73
2018-12-13T11:38:17.789Z,9.60
2018-12-13T11:40:46.822Z,9.60
2018-12-13T11:43:15.921Z,10.97
2018-12-13T11:45:45.516Z,10.47
2018-12-13T11:48:15.396Z,9.53
2018-12-13T11:50:44.098Z,9.43
2018-12-13T11:53:13.450Z,9.33
2018-12-13T11:55:42.651Z,10.73
2018-12-13T11:58:14.382Z,10.43
2018-12-13T12:00:43.422Z,12.23
2018-12-13T12:03:12.350Z,10.73
2018-12-13T12:05:41.314Z,10.33
2018-12-13T12:08:10.319Z,11.13
2018-12-13T12:10:39.022Z,10.23
2018-12-13T12:13:09.009Z,11.17
2018-12-13T12:15:38.502Z,10.77
2018-12-13T12:18:07.552Z,10.93
2018-12-13T12:20:36.264Z,9.80
2018-12-13T12:23:05.318Z,9.70
2018-12-13T12:25:34.021Z,9.60
2018-12-13T12:28:02.912Z,11.43
2018-12-13T12:30:32.037Z,10.00
2018-12-13T12:33:01.192Z,9.73
2018-12-13T12:35:30.443Z,10.47
2018-12-13T12:37:59.578Z,9.10
2018-12-13T12:40:28.555Z,9.33
2018-12-13T12:42:58.438Z,9.67
2018-12-13T12:45:27.095Z,6.83
2018-12-13T12:47:56.096Z,7.97
2018-12-13T12:50:25.029Z,8.07
2018-12-13T12:52:53.922Z,9.10
2018-12-13T12:55:22.889Z,8.90
2018-12-13T12:57:52.020Z,9.67
2018-12-13T13:00:21.024Z,9.23
2018-12-13T13:02:50.406Z,10.07
2018-12-13T13:05:19.379Z,9.10
2018-12-13T13:07:48.112Z,9.07
2018-12-13T13:10:17.518Z,6.90
2018-12-13T13:12:46.397Z,7.93
2018-12-13T13:15:15.438Z,7.17
2018-12-13T13:17:44.297Z,6.60
2018-12-13T13:20:13.348Z,6.03
2018-12-13T13:22:42.288Z,6.50
2018-12-13T13:25:11.293Z,7.13
2018-12-13T13:27:40.244Z,6.53
2018-12-13T13:30:09.545Z,7.67
2018-12-13T13:32:38.329Z,10.77
2018-12-13T13:35:07.289Z,9.97
2018-12-13T13:37:36.773Z,9.17
2018-12-13T13:40:05.958Z,10.07
2018-12-13T13:42:35.181Z,10.00
2018-12-13T13:45:04.594Z,9.93
2018-12-13T13:47:33.355Z,11.00
2018-12-13T13:50:02.136Z,11.00
2018-12-13T13:52:31.164Z,13.47
2018-12-13T13:54:59.893Z,12.33
2018-12-13T13:57:28.642Z,12.73
2018-12-13T13:59:57.584Z,13.30
2018-12-13T14:02:26.730Z,12.93
2018-12-13T14:04:55.657Z,14.83
2018-12-13T14:07:24.725Z,12.33
2018-12-13T14:09:53.678Z,13.00
2018-12-13T14:12:22.487Z,13.90
2018-12-13T14:14:51.526Z,12.23
2018-12-13T14:17:20.674Z,12.10
2018-12-13T14:19:49.466Z,10.70
2018-12-13T14:22:18.837Z,11.93
2018-12-13T14:24:47.702Z,11.07
2018-12-13T14:27:16.962Z,12.00
2018-12-13T14:29:45.811Z,11.10
2018-12-13T14:32:14.783Z,11.87
2018-12-13T14:34:43.867Z,12.33
2018-12-13T14:37:12.809Z,13.53
2018-12-13T14:39:44.621Z,15.23
2018-12-13T14:42:12.947Z,14.53
2018-12-13T14:44:41.787Z,14.30
2018-12-13T14:47:10.914Z,14.87
2018-12-13T14:49:40.650Z,16.87
2018-12-13T14:52:10.171Z,14.40
2018-12-13T14:54:39.648Z,16.60
2018-12-13T14:57:08.704Z,16.17
2018-12-13T14:59:37.838Z,14.70
2018-12-13T15:02:06.827Z,16.93
2018-12-13T15:04:35.869Z,16.70
2018-12-13T15:07:05.013Z,14.33
2018-12-13T15:09:34.107Z,14.10
2018-12-13T15:12:02.896Z,14.30
2018-12-13T15:14:31.839Z,12.77
2018-12-13T15:17:00.933Z,15.67
2018-12-13T15:19:29.828Z,20.87
2018-12-13T15:21:58.825Z,20.73
2018-12-13T15:24:27.840Z,16.50
2018-12-13T15:26:56.605Z,14.80
2018-12-13T15:29:25.657Z,19.50
2018-12-13T15:31:59.312Z,18.90
2018-12-13T15:34:25.507Z,22.80
2018-12-13T15:36:59.115Z,21.33
2018-12-13T15:39:28.088Z,19.23
2018-12-13T15:41:57.170Z,21.00
2018-12-13T15:44:26.383Z,20.97
2018-12-13T15:46:55.468Z,22.80
2018-12-13T15:49:24.581Z,23.43
2018-12-13T15:51:53.569Z,24.77
2018-12-13T15:54:22.690Z,27.37
2018-12-13T15:56:51.637Z,34.43
2018-12-13T15:59:20.642Z,29.80
2018-12-13T16:01:49.645Z,32.83
2018-12-13T16:04:18.456Z,30.20
2018-12-13T16:06:47.783Z,27.83
2018-12-13T16:09:16.837Z,28.33
2018-12-13T16:11:45.897Z,28.73
2018-12-13T16:14:14.976Z,28.87
2018-12-13T16:16:44.208Z,26.00
2018-12-13T16:19:13.234Z,24.00
2018-12-13T16:21:43.014Z,24.87
2018-12-13T16:24:12.324Z,22.23
2018-12-13T16:26:41.260Z,21.50
2018-12-13T16:29:10.846Z,22.53
2018-12-13T16:31:40.096Z,25.93
2018-12-13T16:34:09.255Z,27.30
2018-12-13T16:36:38.002Z,26.00
2018-12-13T16:39:08.577Z,18.77
2018-12-13T16:41:37.666Z,20.37
2018-12-13T16:44:07.060Z,22.03
2018-12-13T16:46:35.971Z,23.83
2018-12-13T16:49:05.456Z,30.40
2018-12-13T16:51:34.443Z,29.13
2018-12-13T16:54:03.559Z,29.93
2018-12-13T16:56:32.588Z,35.23
2018-12-13T16:59:01.547Z,39.97
2018-12-13T17:01:30.671Z,37.07
2018-12-13T17:03:59.670Z,22.07
2018-12-13T17:06:28.869Z,21.10
2018-12-13T17:08:58.043Z,20.10
2018-12-13T17:11:27.025Z,20.83
2018-12-13T17:13:55.986Z,19.50
2018-12-13T17:16:25.112Z,20.73
2018-12-13T17:18:53.909Z,24.93
2018-12-13T17:21:22.991Z,22.47
2018-12-13T17:23:51.729Z,22.67
2018-12-13T17:26:20.947Z,20.27
2018-12-13T17:28:49.818Z,19.77
2018-12-13T17:31:18.851Z,19.77
2018-12-13T17:33:47.989Z,18.77
2018-12-13T17:36:17.077Z,19.50
2018-12-13T17:38:46.087Z,19.73
2018-12-13T17:41:14.842Z,18.90
2018-12-13T17:43:43.861Z,20.70
2018-12-13T17:46:13.306Z,18.90
2018-12-13T17:48:42.372Z,18.90
2018-12-13T17:51:11.505Z,14.87
2018-12-13T17:53:40.473Z,15.03
2018-12-13T17:56:09.589Z,13.67
2018-12-13T17:58:38.545Z,16.77
2018-12-13T18:01:07.609Z,21.97
2018-12-13T18:03:36.909Z,21.37
2018-12-13T18:06:05.727Z,22.07
2018-12-13T18:08:34.428Z,23.37
2018-12-13T18:11:03.147Z,23.93
2018-12-13T18:13:32.037Z,23.90
2018-12-13T18:16:00.996Z,36.40
2018-12-13T18:18:30.406Z,43.47
2018-12-13T18:20:59.629Z,40.30
2018-12-13T18:23:28.674Z,39.00
2018-12-13T18:25:57.690Z,36.03
2018-12-13T18:28:26.471Z,32.20
2018-12-13T18:30:55.535Z,31.97
2018-12-13T18:33:24.521Z,32.83
2018-12-13T18:35:53.542Z,31.77
2018-12-13T18:38:22.620Z,35.30
2018-12-13T18:40:51.633Z,34.47
2018-12-13T18:43:20.847Z,37.03
2018-12-13T18:45:49.970Z,33.73
2018-12-13T18:48:18.722Z,31.90
2018-12-13T18:50:47.504Z,32.20
2018-12-13T18:53:16.548Z,31.87
2018-12-13T18:55:45.275Z,34.87
2018-12-13T18:58:14.419Z,34.03
2018-12-13T19:00:43.314Z,32.83
2018-12-13T19:03:12.537Z,35.53
2018-12-13T19:05:41.627Z,38.63
2018-12-13T19:08:10.612Z,34.97
2018-12-13T19:10:42.003Z,38.37
2018-12-13T19:13:10.777Z,37.90
2018-12-13T19:15:40.196Z,36.47
2018-12-13T19:18:09.389Z,34.67
2018-12-13T19:20:38.223Z,32.37
2018-12-13T19:23:06.963Z,33.70
2018-12-13T19:25:35.993Z,39.97
2018-12-13T19:28:05.036Z,38.93
2018-12-13T19:30:33.941Z,40.17
2018-12-13T19:33:03.050Z,42.97
2018-12-13T19:35:31.894Z,48.93
2018-12-13T19:38:00.666Z,45.20
2018-12-13T19:40:29.836Z,51.13
2018-12-13T19:42:59.063Z,49.70
2018-12-13T19:45:27.842Z,48.50
2018-12-13T19:47:56.610Z,47.67
2018-12-13T19:50:25.409Z,49.33
2018-12-13T19:52:54.492Z,47.63
2018-12-13T19:55:23.463Z,45.40
2018-12-13T19:57:52.353Z,35.50
2018-12-13T20:00:21.391Z,36.27
2018-12-13T20:02:50.187Z,40.93
2018-12-13T20:05:19.200Z,42.10
2018-12-13T20:07:48.017Z,44.03
2018-12-13T20:10:16.772Z,44.97
2018-12-13T20:12:45.717Z,46.90
2018-12-13T20:15:14.757Z,49.93
2018-12-13T20:17:43.578Z,49.60
2018-12-13T20:20:12.723Z,60.13
2018-12-13T20:22:41.783Z,53.93
2018-12-13T20:25:10.743Z,55.40
2018-12-13T20:27:40.284Z,59.20
2018-12-13T20:30:10.076Z,57.10
2018-12-13T20:32:38.864Z,60.37
2018-12-13T20:35:07.836Z,55.00
2018-12-13T20:37:36.958Z,59.57
2018-12-13T20:40:06.033Z,57.73
2018-12-13T20:42:34.959Z,60.57
2018-12-13T20:45:03.957Z,59.07
2018-12-13T20:47:33.004Z,57.47
2018-12-13T20:50:02.059Z,58.67
2018-12-13T20:52:30.750Z,58.73
2018-12-13T20:54:59.718Z,56.67
2018-12-13T20:57:28.962Z,53.27
2018-12-13T20:59:57.754Z,53.10
2018-12-13T21:02:26.814Z,51.43
2018-12-13T21:04:56.166Z,50.53
2018-12-13T21:07:30.329Z,53.07
2018-12-13T21:09:59.191Z,50.93
2018-12-13T21:12:28.433Z,49.93
2018-12-13T21:14:57.588Z,49.13
2018-12-13T21:17:26.408Z,47.33
2018-12-13T21:19:55.145Z,42.73
2018-12-13T21:22:23.912Z,42.23
2018-12-13T21:24:52.737Z,38.27
2018-12-13T21:27:21.822Z,38.40
2018-12-13T21:29:50.632Z,35.73
2018-12-13T21:32:19.591Z,38.67
2018-12-13T21:34:48.318Z,38.60
2018-12-13T21:37:17.303Z,38.97
2018-12-13T21:39:46.362Z,36.93
2018-12-13T21:42:15.299Z,34.93
2018-12-13T21:44:44.014Z,35.40
2018-12-13T21:47:12.982Z,32.13
2018-12-13T21:49:41.865Z,30.93
2018-12-13T21:52:10.864Z,31.53
2018-12-13T21:54:39.759Z,31.30
2018-12-13T21:57:08.803Z,32.43
2018-12-13T21:59:37.803Z,30.10
2018-12-13T22:02:06.757Z,29.13
2018-12-13T22:04:35.724Z,26.10
2018-12-13T22:07:05.398Z,24.07
2018-12-13T22:09:34.400Z,25.23
2018-12-13T22:12:03.135Z,21.63
2018-12-13T22:14:32.203Z,23.00
2018-12-13T22:17:01.135Z,22.83
2018-12-13T22:19:30.666Z,21.77
2018-12-13T22:21:59.431Z,21.67
2018-12-13T22:24:28.089Z,20.83
2018-12-13T22:26:56.742Z,22.63
2018-12-13T22:29:25.672Z,22.10
2018-12-13T22:31:54.741Z,23.03
2018-12-13T22:34:24.027Z,24.07
2018-12-13T22:36:52.966Z,23.10
2018-12-13T22:39:21.849Z,22.17
2018-12-13T22:41:50.897Z,21.83
2018-12-13T22:44:19.619Z,21.20
2018-12-13T22:46:48.740Z,22.53
2018-12-13T22:49:17.572Z,20.83
2018-12-13T22:51:46.637Z,21.03
2018-12-13T22:54:15.619Z,21.07
2018-12-13T22:56:44.382Z,22.03
2018-12-13T22:59:13.412Z,23.47
2018-12-13T23:01:42.656Z,23.73
2018-12-13T23:04:11.319Z,23.87
2018-12-13T23:06:40.365Z,22.03
2018-12-13T23:09:09.162Z,23.47
2018-12-13T23:11:38.006Z,25.57
2018-12-13T23:14:06.960Z,24.10
2018-12-13T23:16:35.655Z,23.53
2018-12-13T23:19:04.603Z,24.07
2018-12-13T23:21:33.235Z,22.47
2018-12-13T23:24:01.951Z,24.33
2018-12-13T23:26:30.608Z,24.73
2018-12-13T23:28:59.416Z,22.63
2018-12-13T23:31:28.568Z,25.57
2018-12-13T23:33:57.680Z,24.93
2018-12-13T23:36:26.534Z,25.27
2018-12-13T23:38:55.522Z,24.43
2018-12-13T23:41:24.249Z,25.03
2018-12-13T23:43:53.022Z,23.07
2018-12-13T23:46:22.125Z,22.57
2018-12-13T23:48:50.781Z,22.47
2018-12-13T23:51:19.826Z,22.53
2018-12-13T23:53:48.525Z,21.20
2018-12-13T23:56:17.210Z,22.03
2018-12-13T23:58:46.276Z,23.50
